sensor_id;sensor_type;location;lat;lon;timestamp;temperature;humidity
16384;DHT22;8301;51.440;6.610;2024-02-23T00:01:19;4.90;1.00
16384;DHT22;8301;51.440;6.610;2024-02-23T00:03:46;4.90;1.00
16384;DHT22;8301;51.440;6.610;2024-02-23T00:06:13;4.80;1.00
16384;DHT22;8301;51.440;6.610;2024-02-23T00:08:40;4.80;1.00
16384;DHT22;8301;51.440;6.610;2024-02-23T00:11:09;4.80;1.00
16384;DHT22;8301;51.440;6.610;2024-02-23T00:13:36;4.80;99.90
16384;DHT22;8301;51.440;6.610;2024-02-23T00:16:04;4.80;1.00
16384;DHT22;8301;51.440;6.610;2024-02-23T00:18:32;4.80;1.00
16384;DHT22;8301;51.440;6.610;2024-02-23T00:20:58;4.80;99.90
16384;DHT22;8301;51.440;6.610;2024-02-23T00:23:25;4.80;1.00
16384;DHT22;8301;51.440;6.610;2024-02-23T00:25:52;4.90;99.50
16384;DHT22;8301;51.440;6.610;2024-02-23T00:28:19;5.00;1.00
16384;DHT22;8301;51.440;6.610;2024-02-23T00:30:46;5.00;99.90
16384;DHT22;8301;51.440;6.610;2024-02-23T00:33:12;5.10;1.00
16384;DHT22;8301;51.440;6.610;2024-02-23T00:35:39;5.10;31.40
16384;DHT22;8301;51.440;6.610;2024-02-23T00:38:06;5.20;1.00
16384;DHT22;8301;51.440;6.610;2024-02-23T00:40:33;5.30;1.00
16384;DHT22;8301;51.440;6.610;2024-02-23T00:43:00;5.20;1.00
16384;DHT22;8301;51.440;6.610;2024-02-23T00:45:29;5.20;99.90
16384;DHT22;8301;51.440;6.610;2024-02-23T00:47:55;5.20;99.90
16384;DHT22;8301;51.440;6.610;2024-02-23T00:50:30;5.20;99.90
16384;DHT22;8301;51.440;6.610;2024-02-23T00:52:57;5.10;99.90
16384;DHT22;8301;51.440;6.610;2024-02-23T00:55:23;5.10;99.90
16384;DHT22;8301;51.440;6.610;2024-02-23T00:57:52;5.20;99.90
16384;DHT22;8301;51.440;6.610;2024-02-23T01:00:19;5.10;99.90
16384;DHT22;8301;51.440;6.610;2024-02-23T01:02:46;5.10;99.90
16384;DHT22;8301;51.440;6.610;2024-02-23T01:05:13;5.10;99.90
16384;DHT22;8301;51.440;6.610;2024-02-23T01:07:41;5.10;99.90
16384;DHT22;8301;51.440;6.610;2024-02-23T01:10:08;5.20;99.90
16384;DHT22;8301;51.440;6.610;2024-02-23T01:12:35;5.10;99.90
16384;DHT22;8301;51.440;6.610;2024-02-23T01:15:02;5.00;99.90
16384;DHT22;8301;51.440;6.610;2024-02-23T01:17:29;5.10;99.90
16384;DHT22;8301;51.440;6.610;2024-02-23T01:19:56;5.20;99.90
16384;DHT22;8301;51.440;6.610;2024-02-23T01:22:22;5.10;99.90
16384;DHT22;8301;51.440;6.610;2024-02-23T01:24:50;5.10;99.90
16384;DHT22;8301;51.440;6.610;2024-02-23T01:27:19;5.10;99.90
16384;DHT22;8301;51.440;6.610;2024-02-23T01:29:46;5.10;99.90
16384;DHT22;8301;51.440;6.610;2024-02-23T01:32:14;5.00;99.90
16384;DHT22;8301;51.440;6.610;2024-02-23T01:34:41;5.00;99.90
16384;DHT22;8301;51.440;6.610;2024-02-23T01:37:07;5.10;1.00
16384;DHT22;8301;51.440;6.610;2024-02-23T01:39:34;5.10;1.00
16384;DHT22;8301;51.440;6.610;2024-02-23T01:42:01;5.10;1.00
16384;DHT22;8301;51.440;6.610;2024-02-23T01:44:28;5.00;1.00
16384;DHT22;8301;51.440;6.610;2024-02-23T01:46:55;5.00;1.00
16384;DHT22;8301;51.440;6.610;2024-02-23T01:49:22;5.00;1.00
16384;DHT22;8301;51.440;6.610;2024-02-23T01:51:51;5.10;1.00
16384;DHT22;8301;51.440;6.610;2024-02-23T01:54:17;5.10;1.00
16384;DHT22;8301;51.440;6.610;2024-02-23T01:56:44;5.10;1.00
16384;DHT22;8301;51.440;6.610;2024-02-23T01:59:12;5.30;1.00
16384;DHT22;8301;51.440;6.610;2024-02-23T02:01:40;5.40;1.00
16384;DHT22;8301;51.440;6.610;2024-02-23T02:04:08;5.40;1.00
16384;DHT22;8301;51.440;6.610;2024-02-23T02:06:35;5.40;1.00
16384;DHT22;8301;51.440;6.610;2024-02-23T02:09:02;5.60;99.90
16384;DHT22;8301;51.440;6.610;2024-02-23T02:11:30;5.60;99.90
16384;DHT22;8301;51.440;6.610;2024-02-23T02:13:57;5.50;1.00
16384;DHT22;8301;51.440;6.610;2024-02-23T02:16:25;5.50;1.00
16384;DHT22;8301;51.440;6.610;2024-02-23T02:18:52;5.40;1.00
16384;DHT22;8301;51.440;6.610;2024-02-23T02:21:18;5.30;1.00
16384;DHT22;8301;51.440;6.610;2024-02-23T02:23:47;5.30;1.00
16384;DHT22;8301;51.440;6.610;2024-02-23T02:26:14;5.20;1.00
16384;DHT22;8301;51.440;6.610;2024-02-23T02:28:40;5.20;1.00
16384;DHT22;8301;51.440;6.610;2024-02-23T02:31:07;5.20;1.00
16384;DHT22;8301;51.440;6.610;2024-02-23T02:33:35;5.10;1.00
16384;DHT22;8301;51.440;6.610;2024-02-23T02:36:02;5.00;1.00
16384;DHT22;8301;51.440;6.610;2024-02-23T02:38:28;5.10;1.00
16384;DHT22;8301;51.440;6.610;2024-02-23T02:40:55;5.00;1.00
16384;DHT22;8301;51.440;6.610;2024-02-23T02:43:23;5.00;1.00
16384;DHT22;8301;51.440;6.610;2024-02-23T02:45:50;5.00;1.00
16384;DHT22;8301;51.440;6.610;2024-02-23T02:48:17;5.00;1.00
16384;DHT22;8301;51.440;6.610;2024-02-23T02:50:44;4.90;1.00
16384;DHT22;8301;51.440;6.610;2024-02-23T02:53:11;4.90;1.00
16384;DHT22;8301;51.440;6.610;2024-02-23T02:55:43;4.90;1.00
16384;DHT22;8301;51.440;6.610;2024-02-23T02:58:06;5.00;1.00
16384;DHT22;8301;51.440;6.610;2024-02-23T03:00:33;4.90;1.00
16384;DHT22;8301;51.440;6.610;2024-02-23T03:03:00;4.90;1.00
16384;DHT22;8301;51.440;6.610;2024-02-23T03:05:28;4.90;1.00
16384;DHT22;8301;51.440;6.610;2024-02-23T03:07:55;4.90;1.00
16384;DHT22;8301;51.440;6.610;2024-02-23T03:10:22;4.90;1.00
16384;DHT22;8301;51.440;6.610;2024-02-23T03:12:48;4.90;1.00
16384;DHT22;8301;51.440;6.610;2024-02-23T03:15:15;4.80;1.00
16384;DHT22;8301;51.440;6.610;2024-02-23T03:17:43;4.80;1.00
16384;DHT22;8301;51.440;6.610;2024-02-23T03:20:10;4.80;1.00
16384;DHT22;8301;51.440;6.610;2024-02-23T03:22:37;4.80;1.00
16384;DHT22;8301;51.440;6.610;2024-02-23T03:25:04;4.70;1.00
16384;DHT22;8301;51.440;6.610;2024-02-23T03:27:33;4.80;1.00
16384;DHT22;8301;51.440;6.610;2024-02-23T03:30:07;4.80;1.00
16384;DHT22;8301;51.440;6.610;2024-02-23T03:32:31;4.90;1.00
16384;DHT22;8301;51.440;6.610;2024-02-23T03:35:00;4.90;1.00
16384;DHT22;8301;51.440;6.610;2024-02-23T03:37:27;4.90;1.00
16384;DHT22;8301;51.440;6.610;2024-02-23T03:39:53;4.90;1.00
16384;DHT22;8301;51.440;6.610;2024-02-23T03:42:20;4.90;1.00
16384;DHT22;8301;51.440;6.610;2024-02-23T03:44:48;4.80;1.00
16384;DHT22;8301;51.440;6.610;2024-02-23T03:47:15;4.80;1.00
16384;DHT22;8301;51.440;6.610;2024-02-23T03:49:42;4.90;1.00
16384;DHT22;8301;51.440;6.610;2024-02-23T03:52:09;5.00;1.00
16384;DHT22;8301;51.440;6.610;2024-02-23T03:54:36;5.00;1.00
16384;DHT22;8301;51.440;6.610;2024-02-23T03:57:03;5.00;1.00
16384;DHT22;8301;51.440;6.610;2024-02-23T03:59:30;5.00;1.00
16384;DHT22;8301;51.440;6.610;2024-02-23T04:01:57;4.90;1.00
16384;DHT22;8301;51.440;6.610;2024-02-23T04:04:24;4.80;1.00
16384;DHT22;8301;51.440;6.610;2024-02-23T04:06:51;4.90;1.00
16384;DHT22;8301;51.440;6.610;2024-02-23T04:09:18;5.00;1.00
16384;DHT22;8301;51.440;6.610;2024-02-23T04:11:46;5.00;1.00
16384;DHT22;8301;51.440;6.610;2024-02-23T04:14:13;5.00;1.00
16384;DHT22;8301;51.440;6.610;2024-02-23T04:16:39;5.10;1.00
16384;DHT22;8301;51.440;6.610;2024-02-23T04:19:08;5.10;1.00
16384;DHT22;8301;51.440;6.610;2024-02-23T04:21:35;5.10;1.00
16384;DHT22;8301;51.440;6.610;2024-02-23T04:24:02;5.10;1.00
16384;DHT22;8301;51.440;6.610;2024-02-23T04:26:28;5.30;99.90
16384;DHT22;8301;51.440;6.610;2024-02-23T04:28:55;5.20;99.90
16384;DHT22;8301;51.440;6.610;2024-02-23T04:31:22;5.10;99.90
16384;DHT22;8301;51.440;6.610;2024-02-23T04:33:50;5.20;99.90
16384;DHT22;8301;51.440;6.610;2024-02-23T04:36:19;5.10;99.90
16384;DHT22;8301;51.440;6.610;2024-02-23T04:38:45;5.10;99.90
16384;DHT22;8301;51.440;6.610;2024-02-23T04:41:12;5.10;99.90
16384;DHT22;8301;51.440;6.610;2024-02-23T04:43:39;5.10;99.90
16384;DHT22;8301;51.440;6.610;2024-02-23T04:46:06;5.10;99.90
16384;DHT22;8301;51.440;6.610;2024-02-23T04:48:33;5.00;1.00
16384;DHT22;8301;51.440;6.610;2024-02-23T04:51:01;5.10;99.90
16384;DHT22;8301;51.440;6.610;2024-02-23T04:53:28;5.10;99.90
16384;DHT22;8301;51.440;6.610;2024-02-23T04:55:55;5.10;1.00
16384;DHT22;8301;51.440;6.610;2024-02-23T04:58:21;5.10;99.90
16384;DHT22;8301;51.440;6.610;2024-02-23T05:00:48;5.10;99.90
16384;DHT22;8301;51.440;6.610;2024-02-23T05:03:15;4.90;1.00
16384;DHT22;8301;51.440;6.610;2024-02-23T05:05:42;4.90;1.00
16384;DHT22;8301;51.440;6.610;2024-02-23T05:08:09;4.90;1.00
16384;DHT22;8301;51.440;6.610;2024-02-23T05:10:35;4.90;1.00
16384;DHT22;8301;51.440;6.610;2024-02-23T05:13:02;4.90;1.00
16384;DHT22;8301;51.440;6.610;2024-02-23T05:15:29;4.90;99.90
16384;DHT22;8301;51.440;6.610;2024-02-23T05:17:56;4.90;1.00
16384;DHT22;8301;51.440;6.610;2024-02-23T05:20:23;5.00;99.90
16384;DHT22;8301;51.440;6.610;2024-02-23T05:22:49;5.00;99.90
16384;DHT22;8301;51.440;6.610;2024-02-23T05:25:16;5.00;99.90
16384;DHT22;8301;51.440;6.610;2024-02-23T05:27:43;5.00;99.90
16384;DHT22;8301;51.440;6.610;2024-02-23T05:30:10;5.10;99.90
16384;DHT22;8301;51.440;6.610;2024-02-23T05:32:37;5.00;99.90
16384;DHT22;8301;51.440;6.610;2024-02-23T05:35:04;5.00;99.90
16384;DHT22;8301;51.440;6.610;2024-02-23T05:37:31;4.90;99.90
16384;DHT22;8301;51.440;6.610;2024-02-23T05:39:58;5.00;99.90
16384;DHT22;8301;51.440;6.610;2024-02-23T05:42:29;4.90;99.90
16384;DHT22;8301;51.440;6.610;2024-02-23T05:44:56;4.90;99.90
16384;DHT22;8301;51.440;6.610;2024-02-23T05:47:23;4.90;99.90
16384;DHT22;8301;51.440;6.610;2024-02-23T05:49:51;5.00;99.90
16384;DHT22;8301;51.440;6.610;2024-02-23T05:52:17;5.00;99.90
16384;DHT22;8301;51.440;6.610;2024-02-23T05:54:44;5.00;99.90
16384;DHT22;8301;51.440;6.610;2024-02-23T05:57:12;5.00;99.90
16384;DHT22;8301;51.440;6.610;2024-02-23T05:59:39;5.00;99.90
16384;DHT22;8301;51.440;6.610;2024-02-23T06:02:06;5.10;99.90
16384;DHT22;8301;51.440;6.610;2024-02-23T06:04:33;5.20;99.90
16384;DHT22;8301;51.440;6.610;2024-02-23T06:07:00;5.30;99.90
16384;DHT22;8301;51.440;6.610;2024-02-23T06:09:26;5.30;99.90
16384;DHT22;8301;51.440;6.610;2024-02-23T06:11:53;5.40;99.90
16384;DHT22;8301;51.440;6.610;2024-02-23T06:14:20;5.40;99.90
16384;DHT22;8301;51.440;6.610;2024-02-23T06:16:49;5.40;99.90
16384;DHT22;8301;51.440;6.610;2024-02-23T06:19:16;5.50;99.90
16384;DHT22;8301;51.440;6.610;2024-02-23T06:21:47;5.50;99.90
16384;DHT22;8301;51.440;6.610;2024-02-23T06:24:12;5.50;99.90
16384;DHT22;8301;51.440;6.610;2024-02-23T06:26:39;5.50;99.90
16384;DHT22;8301;51.440;6.610;2024-02-23T06:29:06;5.60;99.90
16384;DHT22;8301;51.440;6.610;2024-02-23T06:31:35;5.70;99.90
16384;DHT22;8301;51.440;6.610;2024-02-23T06:34:03;5.70;99.90
16384;DHT22;8301;51.440;6.610;2024-02-23T06:36:30;5.70;99.90
16384;DHT22;8301;51.440;6.610;2024-02-23T06:38:56;5.70;99.90
16384;DHT22;8301;51.440;6.610;2024-02-23T06:41:23;5.80;99.90
16384;DHT22;8301;51.440;6.610;2024-02-23T06:43:50;5.80;99.90
16384;DHT22;8301;51.440;6.610;2024-02-23T06:46:19;5.80;99.90
16384;DHT22;8301;51.440;6.610;2024-02-23T06:48:48;5.80;99.90
16384;DHT22;8301;51.440;6.610;2024-02-23T06:51:15;5.80;99.90
16384;DHT22;8301;51.440;6.610;2024-02-23T06:53:42;5.80;99.90
16384;DHT22;8301;51.440;6.610;2024-02-23T06:56:09;5.80;99.90
16384;DHT22;8301;51.440;6.610;2024-02-23T06:58:36;5.80;99.90
16384;DHT22;8301;51.440;6.610;2024-02-23T07:01:03;5.80;99.90
16384;DHT22;8301;51.440;6.610;2024-02-23T07:03:31;5.90;99.90
16384;DHT22;8301;51.440;6.610;2024-02-23T07:05:58;5.90;99.90
16384;DHT22;8301;51.440;6.610;2024-02-23T07:08:25;5.90;99.90
16384;DHT22;8301;51.440;6.610;2024-02-23T07:10:52;5.90;99.90
16384;DHT22;8301;51.440;6.610;2024-02-23T07:13:19;5.90;99.90
16384;DHT22;8301;51.440;6.610;2024-02-23T07:15:46;5.90;99.90
16384;DHT22;8301;51.440;6.610;2024-02-23T07:18:12;5.90;99.90
16384;DHT22;8301;51.440;6.610;2024-02-23T07:20:39;5.90;99.90
16384;DHT22;8301;51.440;6.610;2024-02-23T07:23:06;6.00;99.90
16384;DHT22;8301;51.440;6.610;2024-02-23T07:25:33;6.10;99.90
16384;DHT22;8301;51.440;6.610;2024-02-23T07:28:00;6.50;99.90
16384;DHT22;8301;51.440;6.610;2024-02-23T07:30:27;6.50;99.90
16384;DHT22;8301;51.440;6.610;2024-02-23T07:32:53;6.50;99.90
16384;DHT22;8301;51.440;6.610;2024-02-23T07:35:20;6.50;99.90
16384;DHT22;8301;51.440;6.610;2024-02-23T07:37:47;6.50;99.90
16384;DHT22;8301;51.440;6.610;2024-02-23T07:40:14;6.70;99.90
16384;DHT22;8301;51.440;6.610;2024-02-23T07:42:41;6.60;99.90
16384;DHT22;8301;51.440;6.610;2024-02-23T07:45:08;6.60;99.90
16384;DHT22;8301;51.440;6.610;2024-02-23T07:47:35;6.50;99.90
16384;DHT22;8301;51.440;6.610;2024-02-23T07:50:02;6.50;99.90
16384;DHT22;8301;51.440;6.610;2024-02-23T07:52:28;6.50;99.90
16384;DHT22;8301;51.440;6.610;2024-02-23T07:54:55;6.40;99.90
16384;DHT22;8301;51.440;6.610;2024-02-23T07:57:22;6.40;99.90
16384;DHT22;8301;51.440;6.610;2024-02-23T07:59:49;6.30;99.90
16384;DHT22;8301;51.440;6.610;2024-02-23T08:02:16;6.30;99.90
16384;DHT22;8301;51.440;6.610;2024-02-23T08:04:42;6.30;99.90
16384;DHT22;8301;51.440;6.610;2024-02-23T08:07:10;6.30;99.90
16384;DHT22;8301;51.440;6.610;2024-02-23T08:09:36;6.40;99.90
16384;DHT22;8301;51.440;6.610;2024-02-23T08:12:04;6.50;99.90
16384;DHT22;8301;51.440;6.610;2024-02-23T08:14:30;6.50;99.90
16384;DHT22;8301;51.440;6.610;2024-02-23T08:16:58;6.60;99.90
16384;DHT22;8301;51.440;6.610;2024-02-23T08:19:25;6.60;99.90
16384;DHT22;8301;51.440;6.610;2024-02-23T08:21:53;6.50;99.90
16384;DHT22;8301;51.440;6.610;2024-02-23T08:24:20;6.70;99.90
16384;DHT22;8301;51.440;6.610;2024-02-23T08:26:46;6.90;99.90
16384;DHT22;8301;51.440;6.610;2024-02-23T08:29:14;7.00;99.90
16384;DHT22;8301;51.440;6.610;2024-02-23T08:31:40;7.00;99.90
16384;DHT22;8301;51.440;6.610;2024-02-23T08:34:07;7.10;99.90
16384;DHT22;8301;51.440;6.610;2024-02-23T08:36:34;7.10;99.90
16384;DHT22;8301;51.440;6.610;2024-02-23T08:39:01;7.10;99.90
16384;DHT22;8301;51.440;6.610;2024-02-23T08:41:28;7.20;99.90
16384;DHT22;8301;51.440;6.610;2024-02-23T08:43:55;7.40;99.90
16384;DHT22;8301;51.440;6.610;2024-02-23T08:46:22;7.50;96.70
16384;DHT22;8301;51.440;6.610;2024-02-23T08:48:49;7.50;99.90
16384;DHT22;8301;51.440;6.610;2024-02-23T08:51:16;7.50;91.70
16384;DHT22;8301;51.440;6.610;2024-02-23T08:53:42;7.60;91.40
16384;DHT22;8301;51.440;6.610;2024-02-23T08:56:09;7.60;99.90
16384;DHT22;8301;51.440;6.610;2024-02-23T08:58:38;7.60;91.30
16384;DHT22;8301;51.440;6.610;2024-02-23T09:01:05;7.60;74.90
16384;DHT22;8301;51.440;6.610;2024-02-23T09:03:32;7.80;69.20
16384;DHT22;8301;51.440;6.610;2024-02-23T09:05:59;8.40;55.80
16384;DHT22;8301;51.440;6.610;2024-02-23T09:08:26;8.50;25.30
16384;DHT22;8301;51.440;6.610;2024-02-23T09:10:52;8.00;28.00
16384;DHT22;8301;51.440;6.610;2024-02-23T09:13:19;8.00;30.00
16384;DHT22;8301;51.440;6.610;2024-02-23T09:15:46;8.10;29.00
16384;DHT22;8301;51.440;6.610;2024-02-23T09:18:13;8.20;32.20
16384;DHT22;8301;51.440;6.610;2024-02-23T09:20:40;8.10;25.50
16384;DHT22;8301;51.440;6.610;2024-02-23T09:23:07;7.80;30.00
16384;DHT22;8301;51.440;6.610;2024-02-23T09:25:33;7.80;32.10
16384;DHT22;8301;51.440;6.610;2024-02-23T09:28:00;7.80;34.80
16384;DHT22;8301;51.440;6.610;2024-02-23T09:30:27;7.60;35.20
16384;DHT22;8301;51.440;6.610;2024-02-23T09:32:54;7.40;38.10
16384;DHT22;8301;51.440;6.610;2024-02-23T09:35:20;7.50;45.30
16384;DHT22;8301;51.440;6.610;2024-02-23T09:37:47;7.40;43.60
16384;DHT22;8301;51.440;6.610;2024-02-23T09:40:14;7.40;47.30
16384;DHT22;8301;51.440;6.610;2024-02-23T09:42:42;7.40;42.50
16384;DHT22;8301;51.440;6.610;2024-02-23T09:45:09;7.50;41.60
16384;DHT22;8301;51.440;6.610;2024-02-23T09:47:37;7.50;30.60
16384;DHT22;8301;51.440;6.610;2024-02-23T09:50:05;7.40;29.90
16384;DHT22;8301;51.440;6.610;2024-02-23T09:52:32;7.40;26.40
16384;DHT22;8301;51.440;6.610;2024-02-23T09:54:59;7.50;28.00
16384;DHT22;8301;51.440;6.610;2024-02-23T09:57:27;7.60;20.70
16384;DHT22;8301;51.440;6.610;2024-02-23T09:59:54;7.60;23.30
16384;DHT22;8301;51.440;6.610;2024-02-23T10:02:21;7.60;15.10
16384;DHT22;8301;51.440;6.610;2024-02-23T10:04:48;7.70;15.60
16384;DHT22;8301;51.440;6.610;2024-02-23T10:07:15;7.70;16.50
16384;DHT22;8301;51.440;6.610;2024-02-23T10:09:44;7.70;13.20
16384;DHT22;8301;51.440;6.610;2024-02-23T10:12:11;7.70;13.90
16384;DHT22;8301;51.440;6.610;2024-02-23T10:14:38;7.70;9.40
16384;DHT22;8301;51.440;6.610;2024-02-23T10:17:08;7.70;12.90
16384;DHT22;8301;51.440;6.610;2024-02-23T10:19:35;7.80;7.80
16384;DHT22;8301;51.440;6.610;2024-02-23T10:22:02;7.70;11.10
16384;DHT22;8301;51.440;6.610;2024-02-23T10:24:29;7.80;7.10
16384;DHT22;8301;51.440;6.610;2024-02-23T10:27:02;7.80;5.00
16384;DHT22;8301;51.440;6.610;2024-02-23T10:29:31;7.80;1.00
16384;DHT22;8301;51.440;6.610;2024-02-23T10:31:57;7.80;1.00
16384;DHT22;8301;51.440;6.610;2024-02-23T10:34:24;7.80;8.20
16384;DHT22;8301;51.440;6.610;2024-02-23T10:36:52;7.80;1.00
16384;DHT22;8301;51.440;6.610;2024-02-23T10:39:19;7.80;1.00
16384;DHT22;8301;51.440;6.610;2024-02-23T10:41:55;7.80;4.00
16384;DHT22;8301;51.440;6.610;2024-02-23T10:44:20;7.80;1.00
16384;DHT22;8301;51.440;6.610;2024-02-23T10:46:48;7.70;5.20
16384;DHT22;8301;51.440;6.610;2024-02-23T10:49:16;7.80;12.50
16384;DHT22;8301;51.440;6.610;2024-02-23T10:51:45;7.80;6.50
16384;DHT22;8301;51.440;6.610;2024-02-23T10:54:14;7.80;1.00
16384;DHT22;8301;51.440;6.610;2024-02-23T10:56:41;7.90;4.10
16384;DHT22;8301;51.440;6.610;2024-02-23T10:59:10;8.00;1.00
16384;DHT22;8301;51.440;6.610;2024-02-23T11:01:37;8.00;1.00
16384;DHT22;8301;51.440;6.610;2024-02-23T11:04:06;8.00;1.00
16384;DHT22;8301;51.440;6.610;2024-02-23T11:06:34;8.00;1.00
16384;DHT22;8301;51.440;6.610;2024-02-23T11:09:07;8.00;1.00
16384;DHT22;8301;51.440;6.610;2024-02-23T11:11:36;7.90;1.00
16384;DHT22;8301;51.440;6.610;2024-02-23T11:14:06;8.00;1.00
16384;DHT22;8301;51.440;6.610;2024-02-23T11:16:32;8.00;1.00
16384;DHT22;8301;51.440;6.610;2024-02-23T11:19:05;8.00;1.00
16384;DHT22;8301;51.440;6.610;2024-02-23T11:21:35;7.90;1.00
16384;DHT22;8301;51.440;6.610;2024-02-23T11:24:04;7.90;1.00
16384;DHT22;8301;51.440;6.610;2024-02-23T11:26:31;7.90;1.00
16384;DHT22;8301;51.440;6.610;2024-02-23T11:29:11;7.90;1.00
16384;DHT22;8301;51.440;6.610;2024-02-23T11:31:30;7.90;1.00
16384;DHT22;8301;51.440;6.610;2024-02-23T11:33:57;7.90;1.00
16384;DHT22;8301;51.440;6.610;2024-02-23T11:36:28;7.90;1.00
16384;DHT22;8301;51.440;6.610;2024-02-23T11:38:59;7.90;1.00
16384;DHT22;8301;51.440;6.610;2024-02-23T11:41:26;7.90;1.00
16384;DHT22;8301;51.440;6.610;2024-02-23T11:43:53;7.90;1.00
16384;DHT22;8301;51.440;6.610;2024-02-23T11:46:22;7.90;1.00
16384;DHT22;8301;51.440;6.610;2024-02-23T11:48:50;8.00;1.00
16384;DHT22;8301;51.440;6.610;2024-02-23T11:51:20;7.90;1.00
16384;DHT22;8301;51.440;6.610;2024-02-23T11:53:50;8.00;1.00
16384;DHT22;8301;51.440;6.610;2024-02-23T11:56:17;8.00;1.00
16384;DHT22;8301;51.440;6.610;2024-02-23T11:58:46;8.00;4.60
16384;DHT22;8301;51.440;6.610;2024-02-23T12:01:15;8.00;4.20
16384;DHT22;8301;51.440;6.610;2024-02-23T12:03:41;8.10;7.20
16384;DHT22;8301;51.440;6.610;2024-02-23T12:06:10;8.10;1.00
16384;DHT22;8301;51.440;6.610;2024-02-23T12:08:36;8.10;2.50
16384;DHT22;8301;51.440;6.610;2024-02-23T12:11:07;8.10;7.00
16384;DHT22;8301;51.440;6.610;2024-02-23T12:13:35;8.20;10.40
16384;DHT22;8301;51.440;6.610;2024-02-23T12:16:02;8.20;1.00
16384;DHT22;8301;51.440;6.610;2024-02-23T12:18:29;8.30;1.00
16384;DHT22;8301;51.440;6.610;2024-02-23T12:20:59;8.40;1.00
16384;DHT22;8301;51.440;6.610;2024-02-23T12:23:40;8.40;5.50
16384;DHT22;8301;51.440;6.610;2024-02-23T12:26:12;8.30;1.00
16384;DHT22;8301;51.440;6.610;2024-02-23T12:28:39;8.30;1.00
16384;DHT22;8301;51.440;6.610;2024-02-23T12:33:37;8.30;5.70
16384;DHT22;8301;51.440;6.610;2024-02-23T12:36:06;8.40;1.00
16384;DHT22;8301;51.440;6.610;2024-02-23T12:38:34;8.30;1.00
16384;DHT22;8301;51.440;6.610;2024-02-23T12:41:10;8.40;1.00
16384;DHT22;8301;51.440;6.610;2024-02-23T12:43:37;8.40;1.00
16384;DHT22;8301;51.440;6.610;2024-02-23T12:46:04;8.40;1.00
16384;DHT22;8301;51.440;6.610;2024-02-23T12:48:32;8.50;1.00
16384;DHT22;8301;51.440;6.610;2024-02-23T12:50:59;8.60;1.00
16384;DHT22;8301;51.440;6.610;2024-02-23T12:53:39;8.50;1.00
16384;DHT22;8301;51.440;6.610;2024-02-23T12:56:07;8.50;1.00
16384;DHT22;8301;51.440;6.610;2024-02-23T12:58:44;8.50;1.00
16384;DHT22;8301;51.440;6.610;2024-02-23T13:01:11;8.50;1.00
16384;DHT22;8301;51.440;6.610;2024-02-23T13:03:38;8.40;1.00
16384;DHT22;8301;51.440;6.610;2024-02-23T13:06:08;8.30;1.00
16384;DHT22;8301;51.440;6.610;2024-02-23T13:08:35;8.40;1.00
16384;DHT22;8301;51.440;6.610;2024-02-23T13:11:02;8.40;1.00
16384;DHT22;8301;51.440;6.610;2024-02-23T13:13:29;8.50;1.00
16384;DHT22;8301;51.440;6.610;2024-02-23T13:15:56;8.50;1.00
16384;DHT22;8301;51.440;6.610;2024-02-23T13:18:23;8.50;1.00
16384;DHT22;8301;51.440;6.610;2024-02-23T13:20:50;8.50;1.00
16384;DHT22;8301;51.440;6.610;2024-02-23T13:23:18;8.50;1.00
16384;DHT22;8301;51.440;6.610;2024-02-23T13:25:45;8.50;1.00
16384;DHT22;8301;51.440;6.610;2024-02-23T13:28:12;8.60;1.00
16384;DHT22;8301;51.440;6.610;2024-02-23T13:30:38;8.40;1.00
16384;DHT22;8301;51.440;6.610;2024-02-23T13:33:05;8.50;1.00
16384;DHT22;8301;51.440;6.610;2024-02-23T13:35:33;8.50;1.00
16384;DHT22;8301;51.440;6.610;2024-02-23T13:38:00;8.50;1.00
16384;DHT22;8301;51.440;6.610;2024-02-23T13:40:29;8.50;1.00
16384;DHT22;8301;51.440;6.610;2024-02-23T13:42:57;8.50;1.00
16384;DHT22;8301;51.440;6.610;2024-02-23T13:45:24;8.40;1.00
16384;DHT22;8301;51.440;6.610;2024-02-23T13:47:58;8.50;1.00
16384;DHT22;8301;51.440;6.610;2024-02-23T13:50:25;8.40;1.00
16384;DHT22;8301;51.440;6.610;2024-02-23T13:52:53;8.40;1.00
16384;DHT22;8301;51.440;6.610;2024-02-23T13:55:20;8.40;1.00
16384;DHT22;8301;51.440;6.610;2024-02-23T13:57:48;8.40;1.00
16384;DHT22;8301;51.440;6.610;2024-02-23T14:00:16;8.40;1.00
16384;DHT22;8301;51.440;6.610;2024-02-23T14:02:43;8.40;1.00
16384;DHT22;8301;51.440;6.610;2024-02-23T14:05:10;8.50;1.00
16384;DHT22;8301;51.440;6.610;2024-02-23T14:07:37;8.60;1.00
16384;DHT22;8301;51.440;6.610;2024-02-23T14:10:04;8.60;1.00
16384;DHT22;8301;51.440;6.610;2024-02-23T14:12:31;8.60;1.00
16384;DHT22;8301;51.440;6.610;2024-02-23T14:14:58;8.60;1.00
16384;DHT22;8301;51.440;6.610;2024-02-23T14:17:25;8.60;1.00
16384;DHT22;8301;51.440;6.610;2024-02-23T14:19:51;8.60;1.00
16384;DHT22;8301;51.440;6.610;2024-02-23T14:22:18;8.70;1.00
16384;DHT22;8301;51.440;6.610;2024-02-23T14:24:46;8.70;1.00
16384;DHT22;8301;51.440;6.610;2024-02-23T14:27:13;8.70;1.00
16384;DHT22;8301;51.440;6.610;2024-02-23T14:29:40;8.70;1.00
16384;DHT22;8301;51.440;6.610;2024-02-23T14:32:06;8.70;1.00
16384;DHT22;8301;51.440;6.610;2024-02-23T14:34:35;8.80;1.00
16384;DHT22;8301;51.440;6.610;2024-02-23T14:37:02;8.90;1.00
16384;DHT22;8301;51.440;6.610;2024-02-23T14:39:29;8.80;1.00
16384;DHT22;8301;51.440;6.610;2024-02-23T14:41:56;8.80;1.00
16384;DHT22;8301;51.440;6.610;2024-02-23T14:44:23;8.90;1.00
16384;DHT22;8301;51.440;6.610;2024-02-23T14:46:50;9.00;1.00
16384;DHT22;8301;51.440;6.610;2024-02-23T14:49:17;9.10;1.00
16384;DHT22;8301;51.440;6.610;2024-02-23T14:51:43;9.10;1.00
16384;DHT22;8301;51.440;6.610;2024-02-23T14:54:12;9.00;1.00
16384;DHT22;8301;51.440;6.610;2024-02-23T14:56:42;9.00;1.00
16384;DHT22;8301;51.440;6.610;2024-02-23T14:59:09;9.00;1.00
16384;DHT22;8301;51.440;6.610;2024-02-23T15:01:38;9.00;1.00
16384;DHT22;8301;51.440;6.610;2024-02-23T15:04:09;8.90;1.00
16384;DHT22;8301;51.440;6.610;2024-02-23T15:06:36;8.80;1.00
16384;DHT22;8301;51.440;6.610;2024-02-23T15:09:03;8.80;1.00
16384;DHT22;8301;51.440;6.610;2024-02-23T15:11:30;8.80;1.00
16384;DHT22;8301;51.440;6.610;2024-02-23T15:13:58;8.70;1.00
16384;DHT22;8301;51.440;6.610;2024-02-23T15:16:31;8.60;1.00
16384;DHT22;8301;51.440;6.610;2024-02-23T15:18:56;8.60;1.00
16384;DHT22;8301;51.440;6.610;2024-02-23T15:21:26;8.70;1.00
16384;DHT22;8301;51.440;6.610;2024-02-23T15:23:53;8.90;1.00
16384;DHT22;8301;51.440;6.610;2024-02-23T15:26:20;9.10;1.00
16384;DHT22;8301;51.440;6.610;2024-02-23T15:28:47;9.10;1.00
16384;DHT22;8301;51.440;6.610;2024-02-23T15:31:14;8.90;1.00
16384;DHT22;8301;51.440;6.610;2024-02-23T15:33:41;8.80;1.00
16384;DHT22;8301;51.440;6.610;2024-02-23T15:36:08;8.60;1.00
16384;DHT22;8301;51.440;6.610;2024-02-23T15:38:35;8.50;4.70
16384;DHT22;8301;51.440;6.610;2024-02-23T15:41:02;8.50;23.00
16384;DHT22;8301;51.440;6.610;2024-02-23T15:43:29;8.40;38.20
16384;DHT22;8301;51.440;6.610;2024-02-23T15:45:56;8.40;27.70
16384;DHT22;8301;51.440;6.610;2024-02-23T15:48:23;8.50;46.00
16384;DHT22;8301;51.440;6.610;2024-02-23T15:50:49;8.70;31.20
16384;DHT22;8301;51.440;6.610;2024-02-23T15:53:16;8.80;25.40
16384;DHT22;8301;51.440;6.610;2024-02-23T15:55:43;8.60;15.00
16384;DHT22;8301;51.440;6.610;2024-02-23T15:58:10;8.60;7.10
16384;DHT22;8301;51.440;6.610;2024-02-23T16:00:38;8.60;1.00
16384;DHT22;8301;51.440;6.610;2024-02-23T16:03:05;8.50;1.20
16384;DHT22;8301;51.440;6.610;2024-02-23T16:05:32;8.50;10.60
16384;DHT22;8301;51.440;6.610;2024-02-23T16:07:59;8.50;15.30
16384;DHT22;8301;51.440;6.610;2024-02-23T16:10:27;8.50;18.40
16384;DHT22;8301;51.440;6.610;2024-02-23T16:12:56;8.50;15.30